sensor_id;sensor_type;location;lat;lon;timestamp;P1;durP1;ratioP1;P2;durP2;ratioP2
62332;SDS011;48624;49.812;8.562;2023-06-26T00:00:10;602.83;;;576.15;;
62332;SDS011;48624;49.812;8.562;2023-06-26T00:02:36;592.45;;;566.60;;
62332;SDS011;48624;49.812;8.562;2023-06-26T00:05:01;592.55;;;565.95;;
62332;SDS011;48624;49.812;8.562;2023-06-26T00:07:27;617.10;;;589.33;;
62332;SDS011;48624;49.812;8.562;2023-06-26T00:09:53;601.55;;;574.70;;
62332;SDS011;48624;49.812;8.562;2023-06-26T00:12:19;610.38;;;583.08;;
62332;SDS011;48624;49.812;8.562;2023-06-26T00:14:44;622.03;;;593.97;;
62332;SDS011;48624;49.812;8.562;2023-06-26T00:17:09;609.38;;;582.35;;
62332;SDS011;48624;49.812;8.562;2023-06-26T00:19:36;608.78;;;582.28;;
62332;SDS011;48624;49.812;8.562;2023-06-26T00:22:01;595.85;;;569.72;;
62332;SDS011;48624;49.812;8.562;2023-06-26T00:24:26;656.55;;;625.00;;
62332;SDS011;48624;49.812;8.562;2023-06-26T00:26:52;647.08;;;617.22;;
62332;SDS011;48624;49.812;8.562;2023-06-26T00:29:17;651.47;;;620.38;;
62332;SDS011;48624;49.812;8.562;2023-06-26T00:31:43;658.40;;;627.50;;
62332;SDS011;48624;49.812;8.562;2023-06-26T00:34:08;666.88;;;635.17;;
62332;SDS011;48624;49.812;8.562;2023-06-26T00:36:34;711.35;;;676.22;;
62332;SDS011;48624;49.812;8.562;2023-06-26T00:38:59;731.42;;;694.15;;
62332;SDS011;48624;49.812;8.562;2023-06-26T00:41:24;717.45;;;682.33;;
62332;SDS011;48624;49.812;8.562;2023-06-26T00:43:50;734.85;;;698.28;;
62332;SDS011;48624;49.812;8.562;2023-06-26T00:46:16;738.45;;;701.75;;
62332;SDS011;48624;49.812;8.562;2023-06-26T00:48:42;725.55;;;689.50;;
62332;SDS011;48624;49.812;8.562;2023-06-26T00:51:08;717.55;;;681.80;;
62332;SDS011;48624;49.812;8.562;2023-06-26T00:53:34;717.08;;;681.60;;
62332;SDS011;48624;49.812;8.562;2023-06-26T00:56:00;710.67;;;676.70;;
62332;SDS011;48624;49.812;8.562;2023-06-26T00:58:27;693.63;;;660.58;;
62332;SDS011;48624;49.812;8.562;2023-06-26T01:00:52;713.55;;;678.63;;
62332;SDS011;48624;49.812;8.562;2023-06-26T01:03:18;676.85;;;644.83;;
62332;SDS011;48624;49.812;8.562;2023-06-26T01:05:48;696.28;;;661.72;;
62332;SDS011;48624;49.812;8.562;2023-06-26T01:08:15;680.97;;;648.45;;
62332;SDS011;48624;49.812;8.562;2023-06-26T01:10:42;660.40;;;630.15;;
62332;SDS011;48624;49.812;8.562;2023-06-26T01:13:08;676.03;;;643.85;;
62332;SDS011;48624;49.812;8.562;2023-06-26T01:15:33;672.35;;;640.17;;
62332;SDS011;48624;49.812;8.562;2023-06-26T01:17:59;704.92;;;669.58;;
62332;SDS011;48624;49.812;8.562;2023-06-26T01:20:28;718.97;;;682.17;;
62332;SDS011;48624;49.812;8.562;2023-06-26T01:28:27;693.60;;;659.60;;
62332;SDS011;48624;49.812;8.562;2023-06-26T01:30:53;722.75;;;686.92;;
62332;SDS011;48624;49.812;8.562;2023-06-26T01:33:19;718.92;;;683.60;;
62332;SDS011;48624;49.812;8.562;2023-06-26T01:35:45;698.70;;;664.93;;
62332;SDS011;48624;49.812;8.562;2023-06-26T01:38:15;686.30;;;653.58;;
62332;SDS011;48624;49.812;8.562;2023-06-26T01:40:46;710.95;;;676.28;;
62332;SDS011;48624;49.812;8.562;2023-06-26T01:46:11;705.17;;;671.05;;
62332;SDS011;48624;49.812;8.562;2023-06-26T01:48:47;699.70;;;665.38;;
62332;SDS011;48624;49.812;8.562;2023-06-26T01:51:19;691.83;;;658.75;;
62332;SDS011;48624;49.812;8.562;2023-06-26T01:53:49;700.58;;;666.72;;
62332;SDS011;48624;49.812;8.562;2023-06-26T01:56:20;721.13;;;684.50;;
62332;SDS011;48624;49.812;8.562;2023-06-26T01:58:49;720.53;;;684.88;;
62332;SDS011;48624;49.812;8.562;2023-06-26T02:01:19;718.42;;;683.05;;
62332;SDS011;48624;49.812;8.562;2023-06-26T02:03:45;712.45;;;677.22;;
62332;SDS011;48624;49.812;8.562;2023-06-26T02:06:12;727.88;;;691.50;;
62332;SDS011;48624;49.812;8.562;2023-06-26T02:08:37;733.38;;;697.00;;
62332;SDS011;48624;49.812;8.562;2023-06-26T02:11:02;736.25;;;698.88;;
62332;SDS011;48624;49.812;8.562;2023-06-26T02:13:27;711.28;;;676.05;;
62332;SDS011;48624;49.812;8.562;2023-06-26T02:15:53;713.10;;;678.65;;
62332;SDS011;48624;49.812;8.562;2023-06-26T02:18:18;711.47;;;676.80;;
62332;SDS011;48624;49.812;8.562;2023-06-26T02:20:43;731.90;;;696.33;;
62332;SDS011;48624;49.812;8.562;2023-06-26T02:23:09;713.10;;;678.67;;
62332;SDS011;48624;49.812;8.562;2023-06-26T02:25:34;713.30;;;679.15;;
62332;SDS011;48624;49.812;8.562;2023-06-26T02:28:00;709.80;;;675.50;;
62332;SDS011;48624;49.812;8.562;2023-06-26T02:30:25;707.20;;;673.13;;
62332;SDS011;48624;49.812;8.562;2023-06-26T02:32:50;724.30;;;688.40;;
62332;SDS011;48624;49.812;8.562;2023-06-26T02:35:15;718.95;;;684.45;;
62332;SDS011;48624;49.812;8.562;2023-06-26T02:37:41;695.00;;;661.50;;
62332;SDS011;48624;49.812;8.562;2023-06-26T02:40:06;661.38;;;630.92;;
62332;SDS011;48624;49.812;8.562;2023-06-26T02:42:34;678.72;;;646.63;;
62332;SDS011;48624;49.812;8.562;2023-06-26T02:45:00;692.53;;;659.70;;
62332;SDS011;48624;49.812;8.562;2023-06-26T02:47:25;661.88;;;631.28;;
62332;SDS011;48624;49.812;8.562;2023-06-26T02:49:51;660.00;;;629.97;;
62332;SDS011;48624;49.812;8.562;2023-06-26T02:52:17;663.55;;;633.47;;
62332;SDS011;48624;49.812;8.562;2023-06-26T02:54:43;703.28;;;669.72;;
62332;SDS011;48624;49.812;8.562;2023-06-26T02:57:09;693.95;;;660.83;;
62332;SDS011;48624;49.812;8.562;2023-06-26T02:59:34;684.80;;;652.97;;
62332;SDS011;48624;49.812;8.562;2023-06-26T03:01:59;664.75;;;633.53;;
62332;SDS011;48624;49.812;8.562;2023-06-26T03:04:24;637.05;;;608.53;;
62332;SDS011;48624;49.812;8.562;2023-06-26T03:06:50;629.42;;;601.30;;
62332;SDS011;48624;49.812;8.562;2023-06-26T03:09:15;654.22;;;624.92;;
62332;SDS011;48624;49.812;8.562;2023-06-26T03:11:41;620.25;;;592.80;;
62332;SDS011;48624;49.812;8.562;2023-06-26T03:14:07;603.00;;;576.70;;
62332;SDS011;48624;49.812;8.562;2023-06-26T03:16:32;630.60;;;603.45;;
62332;SDS011;48624;49.812;8.562;2023-06-26T03:18:57;597.85;;;572.05;;
62332;SDS011;48624;49.812;8.562;2023-06-26T03:21:23;589.45;;;564.53;;
62332;SDS011;48624;49.812;8.562;2023-06-26T03:23:48;560.47;;;537.38;;
62332;SDS011;48624;49.812;8.562;2023-06-26T03:26:13;582.78;;;558.50;;
62332;SDS011;48624;49.812;8.562;2023-06-26T03:28:39;569.15;;;545.33;;
62332;SDS011;48624;49.812;8.562;2023-06-26T03:31:05;570.47;;;546.70;;
62332;SDS011;48624;49.812;8.562;2023-06-26T03:33:30;575.45;;;551.13;;
62332;SDS011;48624;49.812;8.562;2023-06-26T03:35:56;570.03;;;546.20;;
62332;SDS011;48624;49.812;8.562;2023-06-26T03:38:21;565.22;;;541.67;;
62332;SDS011;48624;49.812;8.562;2023-06-26T03:40:47;579.72;;;555.33;;
62332;SDS011;48624;49.812;8.562;2023-06-26T03:43:12;570.83;;;546.88;;
62332;SDS011;48624;49.812;8.562;2023-06-26T03:45:38;571.20;;;547.20;;
62332;SDS011;48624;49.812;8.562;2023-06-26T03:48:03;555.53;;;532.08;;
62332;SDS011;48624;49.812;8.562;2023-06-26T03:50:29;563.35;;;539.78;;
62332;SDS011;48624;49.812;8.562;2023-06-26T03:52:54;562.40;;;538.78;;
62332;SDS011;48624;49.812;8.562;2023-06-26T03:55:19;563.88;;;540.22;;
62332;SDS011;48624;49.812;8.562;2023-06-26T03:57:47;558.65;;;535.35;;
62332;SDS011;48624;49.812;8.562;2023-06-26T04:00:13;583.75;;;558.40;;
62332;SDS011;48624;49.812;8.562;2023-06-26T04:02:39;587.63;;;562.38;;
62332;SDS011;48624;49.812;8.562;2023-06-26T04:05:04;583.55;;;558.75;;
62332;SDS011;48624;49.812;8.562;2023-06-26T04:07:29;597.13;;;571.30;;
62332;SDS011;48624;49.812;8.562;2023-06-26T04:09:56;572.75;;;548.30;;
62332;SDS011;48624;49.812;8.562;2023-06-26T04:12:21;581.83;;;557.05;;
62332;SDS011;48624;49.812;8.562;2023-06-26T04:14:47;567.90;;;544.17;;
62332;SDS011;48624;49.812;8.562;2023-06-26T04:17:12;562.25;;;538.50;;
62332;SDS011;48624;49.812;8.562;2023-06-26T04:19:37;566.53;;;542.78;;
62332;SDS011;48624;49.812;8.562;2023-06-26T04:22:03;563.80;;;540.28;;
62332;SDS011;48624;49.812;8.562;2023-06-26T04:24:28;563.50;;;539.17;;
62332;SDS011;48624;49.812;8.562;2023-06-26T04:26:54;552.42;;;529.40;;
62332;SDS011;48624;49.812;8.562;2023-06-26T04:29:22;568.15;;;544.42;;
62332;SDS011;48624;49.812;8.562;2023-06-26T04:31:51;543.03;;;520.70;;
62332;SDS011;48624;49.812;8.562;2023-06-26T04:34:17;598.33;;;572.35;;
62332;SDS011;48624;49.812;8.562;2023-06-26T04:36:43;639.47;;;610.85;;
62332;SDS011;48624;49.812;8.562;2023-06-26T04:39:12;651.05;;;621.70;;
62332;SDS011;48624;49.812;8.562;2023-06-26T04:41:39;615.85;;;588.50;;
62332;SDS011;48624;49.812;8.562;2023-06-26T04:44:05;614.17;;;587.05;;
62332;SDS011;48624;49.812;8.562;2023-06-26T04:46:30;571.50;;;547.58;;
62332;SDS011;48624;49.812;8.562;2023-06-26T04:48:55;555.63;;;532.42;;
62332;SDS011;48624;49.812;8.562;2023-06-26T04:51:23;561.97;;;538.45;;
62332;SDS011;48624;49.812;8.562;2023-06-26T04:53:49;550.28;;;527.60;;
62332;SDS011;48624;49.812;8.562;2023-06-26T04:56:15;562.67;;;539.30;;
62332;SDS011;48624;49.812;8.562;2023-06-26T04:58:40;557.72;;;534.60;;
62332;SDS011;48624;49.812;8.562;2023-06-26T05:01:05;546.58;;;523.55;;
62332;SDS011;48624;49.812;8.562;2023-06-26T05:03:31;570.72;;;546.67;;
62332;SDS011;48624;49.812;8.562;2023-06-26T05:05:57;552.05;;;529.05;;
62332;SDS011;48624;49.812;8.562;2023-06-26T05:08:24;571.70;;;547.17;;
62332;SDS011;48624;49.812;8.562;2023-06-26T05:10:51;585.45;;;560.33;;
62332;SDS011;48624;49.812;8.562;2023-06-26T05:13:18;554.35;;;531.03;;
62332;SDS011;48624;49.812;8.562;2023-06-26T05:15:44;550.40;;;527.55;;
62332;SDS011;48624;49.812;8.562;2023-06-26T05:18:11;572.83;;;548.65;;
62332;SDS011;48624;49.812;8.562;2023-06-26T05:20:36;595.58;;;570.08;;
62332;SDS011;48624;49.812;8.562;2023-06-26T05:23:03;567.80;;;543.95;;
62332;SDS011;48624;49.812;8.562;2023-06-26T05:25:31;613.97;;;586.75;;
62332;SDS011;48624;49.812;8.562;2023-06-26T05:27:59;691.22;;;658.20;;
62332;SDS011;48624;49.812;8.562;2023-06-26T05:30:25;671.78;;;640.10;;
62332;SDS011;48624;49.812;8.562;2023-06-26T05:32:51;696.60;;;663.00;;
62332;SDS011;48624;49.812;8.562;2023-06-26T05:35:18;717.45;;;682.20;;
62332;SDS011;48624;49.812;8.562;2023-06-26T05:37:45;707.72;;;672.83;;
62332;SDS011;48624;49.812;8.562;2023-06-26T05:40:12;635.53;;;606.75;;
62332;SDS011;48624;49.812;8.562;2023-06-26T05:42:37;682.65;;;650.03;;
62332;SDS011;48624;49.812;8.562;2023-06-26T05:45:03;703.53;;;669.60;;
62332;SDS011;48624;49.812;8.562;2023-06-26T05:47:29;650.25;;;620.08;;
62332;SDS011;48624;49.812;8.562;2023-06-26T05:49:54;692.75;;;658.83;;
62332;SDS011;48624;49.812;8.562;2023-06-26T05:52:20;722.70;;;686.92;;
62332;SDS011;48624;49.812;8.562;2023-06-26T05:54:45;709.42;;;673.80;;
62332;SDS011;48624;49.812;8.562;2023-06-26T05:57:11;727.60;;;691.63;;
62332;SDS011;48624;49.812;8.562;2023-06-26T05:59:40;725.33;;;689.50;;
62332;SDS011;48624;49.812;8.562;2023-06-26T06:02:06;733.53;;;696.53;;
62332;SDS011;48624;49.812;8.562;2023-06-26T06:04:31;739.85;;;703.53;;
62332;SDS011;48624;49.812;8.562;2023-06-26T06:06:57;688.88;;;655.25;;
62332;SDS011;48624;49.812;8.562;2023-06-26T06:09:22;644.85;;;614.85;;
62332;SDS011;48624;49.812;8.562;2023-06-26T06:11:47;662.88;;;631.35;;
62332;SDS011;48624;49.812;8.562;2023-06-26T06:14:13;592.70;;;566.78;;
62332;SDS011;48624;49.812;8.562;2023-06-26T06:16:38;594.45;;;568.70;;
62332;SDS011;48624;49.812;8.562;2023-06-26T06:19:03;651.25;;;621.95;;
62332;SDS011;48624;49.812;8.562;2023-06-26T06:21:31;677.00;;;645.17;;
62332;SDS011;48624;49.812;8.562;2023-06-26T06:23:57;678.55;;;646.55;;
62332;SDS011;48624;49.812;8.562;2023-06-26T06:26:22;660.00;;;628.92;;
62332;SDS011;48624;49.812;8.562;2023-06-26T06:28:47;624.30;;;596.28;;
62332;SDS011;48624;49.812;8.562;2023-06-26T06:31:13;561.47;;;537.42;;
62332;SDS011;48624;49.812;8.562;2023-06-26T06:33:38;508.60;;;487.98;;
62332;SDS011;48624;49.812;8.562;2023-06-26T06:36:03;495.20;;;475.23;;
62332;SDS011;48624;49.812;8.562;2023-06-26T06:38:29;494.23;;;474.85;;
62332;SDS011;48624;49.812;8.562;2023-06-26T06:40:54;509.60;;;489.58;;
62332;SDS011;48624;49.812;8.562;2023-06-26T06:43:20;532.33;;;510.05;;
62332;SDS011;48624;49.812;8.562;2023-06-26T06:45:45;508.60;;;488.73;;
62332;SDS011;48624;49.812;8.562;2023-06-26T06:48:10;525.58;;;503.88;;
62332;SDS011;48624;49.812;8.562;2023-06-26T06:50:36;505.48;;;485.23;;
62332;SDS011;48624;49.812;8.562;2023-06-26T06:53:01;497.70;;;478.23;;
62332;SDS011;48624;49.812;8.562;2023-06-26T06:55:26;505.48;;;485.20;;
62332;SDS011;48624;49.812;8.562;2023-06-26T06:57:52;469.15;;;450.63;;
62332;SDS011;48624;49.812;8.562;2023-06-26T07:00:17;427.95;;;411.40;;
62332;SDS011;48624;49.812;8.562;2023-06-26T07:02:43;276.70;;;266.98;;
62332;SDS011;48624;49.812;8.562;2023-06-26T07:05:09;263.60;;;254.13;;
62332;SDS011;48624;49.812;8.562;2023-06-26T07:07:35;233.60;;;225.25;;
62332;SDS011;48624;49.812;8.562;2023-06-26T07:10:03;234.60;;;226.15;;
62332;SDS011;48624;49.812;8.562;2023-06-26T07:12:31;217.18;;;209.63;;
62332;SDS011;48624;49.812;8.562;2023-06-26T07:14:56;219.25;;;211.35;;
62332;SDS011;48624;49.812;8.562;2023-06-26T07:17:22;237.27;;;228.68;;
62332;SDS011;48624;49.812;8.562;2023-06-26T07:19:48;247.77;;;238.63;;
62332;SDS011;48624;49.812;8.562;2023-06-26T07:22:14;200.68;;;193.30;;
62332;SDS011;48624;49.812;8.562;2023-06-26T07:24:40;184.23;;;177.48;;
62332;SDS011;48624;49.812;8.562;2023-06-26T07:27:06;220.75;;;213.18;;
62332;SDS011;48624;49.812;8.562;2023-06-26T07:29:31;202.23;;;195.13;;
62332;SDS011;48624;49.812;8.562;2023-06-26T07:31:56;102.47;;;98.63;;
62332;SDS011;48624;49.812;8.562;2023-06-26T07:34:21;73.63;;;70.60;;
62332;SDS011;48624;49.812;8.562;2023-06-26T07:36:47;57.85;;;55.17;;
62332;SDS011;48624;49.812;8.562;2023-06-26T07:39:12;38.85;;;36.78;;
62332;SDS011;48624;49.812;8.562;2023-06-26T07:41:37;53.65;;;51.45;;
62332;SDS011;48624;49.812;8.562;2023-06-26T07:44:03;42.17;;;39.95;;
62332;SDS011;48624;49.812;8.562;2023-06-26T07:46:28;44.33;;;42.35;;
62332;SDS011;48624;49.812;8.562;2023-06-26T07:48:53;35.22;;;33.20;;
62332;SDS011;48624;49.812;8.562;2023-06-26T07:51:19;14.05;;;12.95;;
62332;SDS011;48624;49.812;8.562;2023-06-26T07:53:45;9.20;;;8.30;;
62332;SDS011;48624;49.812;8.562;2023-06-26T07:56:10;12.27;;;9.68;;
62332;SDS011;48624;49.812;8.562;2023-06-26T07:58:35;8.45;;;7.57;;
62332;SDS011;48624;49.812;8.562;2023-06-26T08:01:01;10.60;;;9.70;;
62332;SDS011;48624;49.812;8.562;2023-06-26T08:03:26;15.95;;;14.60;;
62332;SDS011;48624;49.812;8.562;2023-06-26T08:05:51;8.48;;;7.57;;
62332;SDS011;48624;49.812;8.562;2023-06-26T08:08:17;6.95;;;6.25;;
62332;SDS011;48624;49.812;8.562;2023-06-26T08:10:42;7.63;;;5.97;;
62332;SDS011;48624;49.812;8.562;2023-06-26T08:13:07;7.80;;;5.60;;
62332;SDS011;48624;49.812;8.562;2023-06-26T08:15:32;8.35;;;5.43;;
62332;SDS011;48624;49.812;8.562;2023-06-26T08:17:58;8.32;;;6.90;;
62332;SDS011;48624;49.812;8.562;2023-06-26T08:20:23;8.25;;;7.43;;
62332;SDS011;48624;49.812;8.562;2023-06-26T08:22:49;8.18;;;6.25;;
62332;SDS011;48624;49.812;8.562;2023-06-26T08:25:16;11.48;;;8.07;;
62332;SDS011;48624;49.812;8.562;2023-06-26T08:27:42;8.32;;;7.20;;
62332;SDS011;48624;49.812;8.562;2023-06-26T08:30:07;9.02;;;6.60;;
62332;SDS011;48624;49.812;8.562;2023-06-26T08:32:33;5.28;;;4.78;;
62332;SDS011;48624;49.812;8.562;2023-06-26T08:34:58;7.15;;;5.68;;
62332;SDS011;48624;49.812;8.562;2023-06-26T08:37:23;6.47;;;5.25;;
62332;SDS011;48624;49.812;8.562;2023-06-26T08:39:49;8.30;;;5.22;;
62332;SDS011;48624;49.812;8.562;2023-06-26T08:42:14;12.93;;;6.00;;
62332;SDS011;48624;49.812;8.562;2023-06-26T08:44:40;7.20;;;5.97;;
62332;SDS011;48624;49.812;8.562;2023-06-26T08:47:05;6.25;;;4.70;;
62332;SDS011;48624;49.812;8.562;2023-06-26T08:50:13;8.90;;;6.13;;
62332;SDS011;48624;49.812;8.562;2023-06-26T08:52:43;6.50;;;4.80;;
62332;SDS011;48624;49.812;8.562;2023-06-26T08:55:15;7.10;;;5.35;;
62332;SDS011;48624;49.812;8.562;2023-06-26T08:57:43;7.13;;;5.20;;
62332;SDS011;48624;49.812;8.562;2023-06-26T09:00:08;5.82;;;5.22;;
62332;SDS011;48624;49.812;8.562;2023-06-26T09:02:36;6.85;;;5.28;;
62332;SDS011;48624;49.812;8.562;2023-06-26T09:05:02;6.38;;;4.80;;
62332;SDS011;48624;49.812;8.562;2023-06-26T09:07:28;6.78;;;5.25;;
62332;SDS011;48624;49.812;8.562;2023-06-26T09:09:53;5.03;;;4.28;;
62332;SDS011;48624;49.812;8.562;2023-06-26T09:12:19;10.30;;;5.30;;
62332;SDS011;48624;49.812;8.562;2023-06-26T09:14:45;7.50;;;4.65;;
62332;SDS011;48624;49.812;8.562;2023-06-26T09:17:12;5.38;;;4.88;;
62332;SDS011;48624;49.812;8.562;2023-06-26T09:19:38;6.13;;;4.40;;
62332;SDS011;48624;49.812;8.562;2023-06-26T09:22:03;6.63;;;4.07;;
62332;SDS011;48624;49.812;8.562;2023-06-26T09:24:29;5.40;;;4.25;;
62332;SDS011;48624;49.812;8.562;2023-06-26T09:26:55;6.45;;;4.95;;
62332;SDS011;48624;49.812;8.562;2023-06-26T09:29:21;4.97;;;4.25;;
62332;SDS011;48624;49.812;8.562;2023-06-26T09:31:47;7.90;;;5.05;;
62332;SDS011;48624;49.812;8.562;2023-06-26T09:34:13;9.02;;;3.95;;
62332;SDS011;48624;49.812;8.562;2023-06-26T09:36:39;4.43;;;4.03;;
62332;SDS011;48624;49.812;8.562;2023-06-26T09:39:07;6.13;;;3.92;;
62332;SDS011;48624;49.812;8.562;2023-06-26T09:41:36;7.38;;;4.22;;
62332;SDS011;48624;49.812;8.562;2023-06-26T09:44:03;6.82;;;4.85;;
62332;SDS011;48624;49.812;8.562;2023-06-26T09:46:29;5.68;;;4.47;;
62332;SDS011;48624;49.812;8.562;2023-06-26T09:49:00;6.25;;;5.07;;
62332;SDS011;48624;49.812;8.562;2023-06-26T09:51:28;7.03;;;4.68;;
62332;SDS011;48624;49.812;8.562;2023-06-26T09:53:55;7.00;;;6.03;;
62332;SDS011;48624;49.812;8.562;2023-06-26T09:56:20;5.47;;;4.82;;
62332;SDS011;48624;49.812;8.562;2023-06-26T09:58:46;6.07;;;4.47;;
62332;SDS011;48624;49.812;8.562;2023-06-26T10:01:12;5.75;;;5.07;;
62332;SDS011;48624;49.812;8.562;2023-06-26T10:03:38;5.53;;;4.95;;
62332;SDS011;48624;49.812;8.562;2023-06-26T10:06:03;6.40;;;4.40;;
62332;SDS011;48624;49.812;8.562;2023-06-26T10:08:30;4.07;;;3.67;;
62332;SDS011;48624;49.812;8.562;2023-06-26T10:10:56;4.60;;;4.15;;
62332;SDS011;48624;49.812;8.562;2023-06-26T10:13:24;7.28;;;4.93;;
62332;SDS011;48624;49.812;8.562;2023-06-26T10:15:55;5.22;;;4.22;;
62332;SDS011;48624;49.812;8.562;2023-06-26T10:18:23;4.70;;;3.88;;
62332;SDS011;48624;49.812;8.562;2023-06-26T10:20:50;6.80;;;4.85;;
62332;SDS011;48624;49.812;8.562;2023-06-26T10:23:20;5.20;;;4.32;;
62332;SDS011;48624;49.812;8.562;2023-06-26T10:25:48;6.72;;;5.07;;
62332;SDS011;48624;49.812;8.562;2023-06-26T10:28:16;6.07;;;5.45;;
62332;SDS011;48624;49.812;8.562;2023-06-26T10:30:44;5.25;;;4.72;;
62332;SDS011;48624;49.812;8.562;2023-06-26T10:33:12;5.15;;;3.88;;
62332;SDS011;48624;49.812;8.562;2023-06-26T10:35:44;7.28;;;6.47;;
62332;SDS011;48624;49.812;8.562;2023-06-26T10:38:10;7.28;;;6.25;;
62332;SDS011;48624;49.812;8.562;2023-06-26T10:40:42;7.95;;;4.72;;
62332;SDS011;48624;49.812;8.562;2023-06-26T10:43:13;5.13;;;4.45;;
62332;SDS011;48624;49.812;8.562;2023-06-26T10:45:46;7.45;;;4.97;;
62332;SDS011;48624;49.812;8.562;2023-06-26T10:48:19;6.22;;;4.30;;
62332;SDS011;48624;49.812;8.562;2023-06-26T10:50:48;6.22;;;5.55;;
62332;SDS011;48624;49.812;8.562;2023-06-26T10:55:49;5.65;;;5.05;;
62332;SDS011;48624;49.812;8.562;2023-06-26T10:58:29;6.72;;;4.90;;
62332;SDS011;48624;49.812;8.562;2023-06-26T11:03:36;6.45;;;5.85;;
62332;SDS011;48624;49.812;8.562;2023-06-26T11:06:18;8.40;;;5.38;;
62332;SDS011;48624;49.812;8.562;2023-06-26T11:08:54;56.35;;;53.83;;
62332;SDS011;48624;49.812;8.562;2023-06-26T11:12:08;67.38;;;64.93;;
62332;SDS011;48624;49.812;8.562;2023-06-26T11:14:17;96.47;;;93.05;;
62332;SDS011;48624;49.812;8.562;2023-06-26T11:16:44;224.38;;;216.25;;
62332;SDS011;48624;49.812;8.562;2023-06-26T11:19:13;220.48;;;212.48;;
62332;SDS011;48624;49.812;8.562;2023-06-26T11:21:39;121.43;;;116.93;;
62332;SDS011;48624;49.812;8.562;2023-06-26T11:24:05;87.10;;;83.70;;
62332;SDS011;48624;49.812;8.562;2023-06-26T11:26:32;64.47;;;61.90;;
62332;SDS011;48624;49.812;8.562;2023-06-26T11:29:03;110.05;;;106.18;;
62332;SDS011;48624;49.812;8.562;2023-06-26T11:31:31;90.20;;;86.88;;
62332;SDS011;48624;49.812;8.562;2023-06-26T11:33:58;217.85;;;206.23;;
62332;SDS011;48624;49.812;8.562;2023-06-26T11:36:25;103.53;;;99.63;;
62332;SDS011;48624;49.812;8.562;2023-06-26T11:38:52;90.97;;;87.55;;
62332;SDS011;48624;49.812;8.562;2023-06-26T11:41:34;85.55;;;82.15;;
62332;SDS011;48624;49.812;8.562;2023-06-26T11:44:00;161.45;;;155.43;;
62332;SDS011;48624;49.812;8.562;2023-06-26T11:46:27;180.35;;;173.75;;
62332;SDS011;48624;49.812;8.562;2023-06-26T11:48:53;318.00;;;305.85;;
62332;SDS011;48624;49.812;8.562;2023-06-26T11:51:19;297.77;;;286.60;;
62332;SDS011;48624;49.812;8.562;2023-06-26T11:53:45;272.80;;;262.83;;
62332;SDS011;48624;49.812;8.562;2023-06-26T11:56:12;443.38;;;425.15;;
62332;SDS011;48624;49.812;8.562;2023-06-26T11:58:58;443.00;;;425.10;;
62332;SDS011;48624;49.812;8.562;2023-06-26T12:01:43;501.35;;;478.42;;
62332;SDS011;48624;49.812;8.562;2023-06-26T12:04:13;429.80;;;412.60;;
62332;SDS011;48624;49.812;8.562;2023-06-26T12:06:42;425.10;;;408.08;;
62332;SDS011;48624;49.812;8.562;2023-06-26T12:09:11;414.95;;;398.48;;
62332;SDS011;48624;49.812;8.562;2023-06-26T12:11:38;409.08;;;393.08;;
62332;SDS011;48624;49.812;8.562;2023-06-26T12:14:08;385.63;;;370.70;;
62332;SDS011;48624;49.812;8.562;2023-06-26T12:16:35;334.45;;;321.98;;
62332;SDS011;48624;49.812;8.562;2023-06-26T12:19:01;411.98;;;395.73;;
62332;SDS011;48624;49.812;8.562;2023-06-26T12:24:06;578.67;;;551.30;;
62332;SDS011;48624;49.812;8.562;2023-06-26T12:26:33;621.20;;;589.75;;
62332;SDS011;48624;49.812;8.562;2023-06-26T12:31:31;672.08;;;636.92;;
62332;SDS011;48624;49.812;8.562;2023-06-26T12:33:57;670.28;;;635.05;;
62332;SDS011;48624;49.812;8.562;2023-06-26T12:36:22;673.45;;;638.20;;
62332;SDS011;48624;49.812;8.562;2023-06-26T12:38:48;636.50;;;604.25;;
62332;SDS011;48624;49.812;8.562;2023-06-26T12:41:14;762.20;;;717.35;;
62332;SDS011;48624;49.812;8.562;2023-06-26T12:43:42;752.15;;;707.50;;
62332;SDS011;48624;49.812;8.562;2023-06-26T12:46:07;755.47;;;710.70;;
62332;SDS011;48624;49.812;8.562;2023-06-26T12:48:40;762.10;;;717.20;;
62332;SDS011;48624;49.812;8.562;2023-06-26T12:51:14;730.00;;;688.28;;
62332;SDS011;48624;49.812;8.562;2023-06-26T12:53:43;660.70;;;626.42;;
62332;SDS011;48624;49.812;8.562;2023-06-26T12:56:09;740.20;;;698.60;;
62332;SDS011;48624;49.812;8.562;2023-06-26T12:58:37;907.63;;;843.63;;
62332;SDS011;48624;49.812;8.562;2023-06-26T13:01:03;868.38;;;800.50;;
62332;SDS011;48624;49.812;8.562;2023-06-26T13:03:31;796.00;;;746.08;;
62332;SDS011;48624;49.812;8.562;2023-06-26T13:05:56;801.53;;;752.83;;
62332;SDS011;48624;49.812;8.562;2023-06-26T13:08:22;604.22;;;574.88;;
62332;SDS011;48624;49.812;8.562;2023-06-26T13:10:47;628.47;;;597.33;;
62332;SDS011;48624;49.812;8.562;2023-06-26T13:13:13;646.10;;;611.92;;
62332;SDS011;48624;49.812;8.562;2023-06-26T13:15:38;642.83;;;610.03;;
62332;SDS011;48624;49.812;8.562;2023-06-26T13:18:04;572.33;;;545.80;;
62332;SDS011;48624;49.812;8.562;2023-06-26T13:20:29;806.10;;;756.25;;
62332;SDS011;48624;49.812;8.562;2023-06-26T13:22:54;542.47;;;515.10;;
62332;SDS011;48624;49.812;8.562;2023-06-26T13:25:20;777.92;;;707.13;;
62332;SDS011;48624;49.812;8.562;2023-06-26T13:27:46;569.53;;;541.05;;
62332;SDS011;48624;49.812;8.562;2023-06-26T13:30:12;392.77;;;377.45;;
62332;SDS011;48624;49.812;8.562;2023-06-26T13:32:38;349.90;;;336.02;;
62332;SDS011;48624;49.812;8.562;2023-06-26T13:35:03;310.75;;;299.48;;
62332;SDS011;48624;49.812;8.562;2023-06-26T13:37:29;313.65;;;301.83;;
62332;SDS011;48624;49.812;8.562;2023-06-26T13:39:54;279.52;;;269.65;;
62332;SDS011;48624;49.812;8.562;2023-06-26T13:42:20;251.27;;;242.43;;
62332;SDS011;48624;49.812;8.562;2023-06-26T13:44:45;200.90;;;193.68;;
62332;SDS011;48624;49.812;8.562;2023-06-26T13:47:12;148.13;;;142.90;;
62332;SDS011;48624;49.812;8.562;2023-06-26T13:49:38;232.55;;;224.07;;
62332;SDS011;48624;49.812;8.562;2023-06-26T13:52:03;357.35;;;342.23;;
62332;SDS011;48624;49.812;8.562;2023-06-26T13:54:29;417.30;;;396.98;;
62332;SDS011;48624;49.812;8.562;2023-06-26T13:56:54;278.67;;;268.90;;
62332;SDS011;48624;49.812;8.562;2023-06-26T13:59:22;333.75;;;321.17;;
62332;SDS011;48624;49.812;8.562;2023-06-26T14:01:50;361.88;;;348.45;;
62332;SDS011;48624;49.812;8.562;2023-06-26T14:04:15;485.70;;;464.60;;
62332;SDS011;48624;49.812;8.562;2023-06-26T14:06:42;485.02;;;464.67;;
62332;SDS011;48624;49.812;8.562;2023-06-26T14:09:07;512.22;;;490.25;;
62332;SDS011;48624;49.812;8.562;2023-06-26T14:11:33;636.85;;;604.63;;
62332;SDS011;48624;49.812;8.562;2023-06-26T14:13:59;662.90;;;628.35;;
62332;SDS011;48624;49.812;8.562;2023-06-26T14:16:25;687.00;;;650.17;;
62332;SDS011;48624;49.812;8.562;2023-06-26T14:18:50;667.92;;;632.58;;
62332;SDS011;48624;49.812;8.562;2023-06-26T14:21:16;675.28;;;639.78;;
62332;SDS011;48624;49.812;8.562;2023-06-26T14:23:41;716.95;;;676.35;;